createdAt,value
2018-04-07T00:03:37.755Z,20.59
2018-04-07T00:06:03.927Z,20.58
2018-04-07T00:08:30.095Z,20.56
2018-04-07T00:10:56.307Z,20.56
2018-04-07T00:13:22.482Z,20.57
2018-04-07T00:15:48.672Z,20.56
2018-04-07T00:18:14.941Z,20.56
2018-04-07T00:20:41.128Z,20.52
2018-04-07T00:23:07.329Z,20.52
2018-04-07T00:25:33.858Z,20.54
2018-04-07T00:28:00.046Z,20.54
2018-04-07T00:30:26.219Z,20.51
2018-04-07T00:32:52.438Z,20.51
2018-04-07T00:35:18.611Z,20.50
2018-04-07T00:37:44.774Z,20.49
2018-04-07T00:40:11.019Z,20.48
2018-04-07T00:42:37.228Z,20.47
2018-04-07T00:45:03.468Z,20.47
2018-04-07T00:47:29.713Z,20.47
2018-04-07T00:49:55.862Z,20.46
2018-04-07T00:52:22.194Z,20.45
2018-04-07T00:54:48.373Z,20.45
2018-04-07T00:57:14.977Z,20.44
2018-04-07T00:59:41.183Z,20.44
2018-04-07T01:02:07.356Z,20.44
2018-04-07T01:04:33.926Z,20.45
2018-04-07T01:07:00.147Z,20.46
2018-04-07T01:09:26.718Z,20.47
2018-04-07T01:11:52.932Z,20.47
2018-04-07T01:14:19.132Z,20.44
2018-04-07T01:16:45.371Z,20.44
2018-04-07T01:19:11.898Z,20.43
2018-04-07T01:21:38.113Z,20.44
2018-04-07T01:24:04.334Z,20.44
2018-04-07T01:26:30.507Z,20.44
2018-04-07T01:28:56.704Z,20.44
2018-04-07T01:31:22.897Z,20.43
2018-04-07T01:33:49.137Z,20.44
2018-04-07T01:36:15.295Z,20.44
2018-04-07T01:38:41.491Z,20.44
2018-04-07T01:41:07.686Z,20.44
2018-04-07T01:43:34.179Z,20.42
2018-04-07T01:46:00.370Z,20.41
2018-04-07T01:48:26.590Z,20.41
2018-04-07T01:50:52.782Z,20.42
2018-04-07T01:53:18.957Z,20.40
2018-04-07T01:55:45.206Z,20.41
2018-04-07T01:58:11.393Z,20.39
2018-04-07T02:00:37.570Z,20.40
2018-04-07T02:03:03.821Z,20.39
2018-04-07T02:05:30.005Z,20.36
2018-04-07T02:07:56.203Z,20.36
2018-04-07T02:10:22.376Z,20.36
2018-04-07T02:12:48.574Z,20.36
2018-04-07T02:15:14.801Z,20.35
2018-04-07T02:17:41.033Z,20.33
2018-04-07T02:20:07.500Z,20.33
2018-04-07T02:22:34.087Z,20.30
2018-04-07T02:25:00.260Z,20.31
2018-04-07T02:27:26.424Z,20.31
2018-04-07T02:29:52.662Z,20.28
2018-04-07T02:32:18.843Z,20.29
2018-04-07T02:34:45.440Z,20.30
2018-04-07T02:37:11.920Z,20.31
2018-04-07T02:39:38.107Z,20.30
2018-04-07T02:42:04.314Z,20.30
2018-04-07T02:44:30.526Z,20.30
2018-04-07T02:46:56.752Z,20.31
2018-04-07T02:49:22.921Z,20.29
2018-04-07T02:51:49.072Z,20.31
2018-04-07T02:54:15.258Z,20.29
2018-04-07T02:56:41.469Z,20.30
2018-04-07T02:59:07.668Z,20.29
2018-04-07T03:01:33.907Z,20.28
2018-04-07T03:04:00.220Z,20.28
2018-04-07T03:06:26.454Z,20.28
2018-04-07T03:08:52.999Z,20.28
2018-04-07T03:11:19.227Z,20.29
2018-04-07T03:13:45.419Z,20.29
2018-04-07T03:16:11.626Z,20.29
2018-04-07T03:18:37.905Z,20.30
2018-04-07T03:21:04.336Z,20.30
2018-04-07T03:23:30.758Z,20.30
2018-04-07T03:25:57.299Z,20.31
2018-04-07T03:28:23.463Z,20.31
2018-04-07T03:30:49.650Z,20.31
2018-04-07T03:33:15.880Z,20.32
2018-04-07T03:35:42.083Z,20.29
2018-04-07T03:38:08.266Z,20.29
2018-04-07T03:40:34.465Z,20.28
2018-04-07T03:43:00.738Z,20.28
2018-04-07T03:45:27.226Z,20.26
2018-04-07T03:47:53.766Z,20.26
2018-04-07T03:50:20.013Z,20.26
2018-04-07T03:52:46.221Z,20.25
2018-04-07T03:55:12.754Z,20.25
2018-04-07T03:57:39.360Z,20.25
2018-04-07T04:00:05.566Z,20.27
2018-04-07T04:02:31.779Z,20.25
2018-04-07T04:04:58.107Z,20.24
2018-04-07T04:07:24.320Z,20.22
2018-04-07T04:09:50.849Z,20.19
2018-04-07T04:12:17.493Z,20.17
2018-04-07T04:14:43.687Z,20.16
2018-04-07T04:17:09.899Z,20.17
2018-04-07T04:19:36.092Z,20.17
2018-04-07T04:22:02.305Z,20.17
2018-04-07T04:24:28.558Z,20.17
2018-04-07T04:26:54.782Z,20.18
2018-04-07T04:29:21.280Z,20.19
2018-04-07T04:31:47.498Z,20.22
2018-04-07T04:34:14.036Z,20.23
2018-04-07T04:36:40.240Z,20.24
2018-04-07T04:39:06.696Z,20.25
2018-04-07T04:41:32.963Z,20.26
2018-04-07T04:43:59.135Z,20.29
2018-04-07T04:46:25.345Z,20.30
2018-04-07T04:48:51.628Z,20.31
2018-04-07T04:51:17.794Z,20.31
2018-04-07T04:53:44.004Z,20.32
2018-04-07T04:56:10.266Z,20.32
2018-04-07T04:58:36.555Z,20.31
2018-04-07T05:01:02.723Z,20.31
2018-04-07T05:03:28.922Z,20.32
2018-04-07T05:05:55.467Z,20.33
2018-04-07T05:08:21.620Z,20.33
2018-04-07T05:10:48.079Z,20.34
2018-04-07T05:13:14.271Z,20.34
2018-04-07T05:15:40.461Z,20.34
2018-04-07T05:18:07.019Z,20.34
2018-04-07T05:20:33.182Z,20.35
2018-04-07T05:23:06.396Z,20.35
2018-04-07T05:25:32.603Z,20.33
2018-04-07T05:27:58.789Z,20.33
2018-04-07T05:30:25.018Z,20.34
2018-04-07T05:32:51.247Z,20.35
2018-04-07T05:35:17.885Z,20.35
2018-04-07T05:37:44.386Z,20.34
2018-04-07T05:40:10.602Z,20.36
2018-04-07T05:42:36.848Z,20.37
2018-04-07T05:45:03.023Z,20.37
2018-04-07T05:47:29.181Z,20.35
2018-04-07T05:49:55.434Z,20.35
2018-04-07T05:52:21.954Z,20.35
2018-04-07T05:54:48.180Z,20.36
2018-04-07T05:57:14.322Z,20.36
2018-04-07T05:59:40.844Z,20.39
2018-04-07T06:02:07.375Z,20.40
2018-04-07T06:04:33.543Z,20.42
2018-04-07T06:06:59.728Z,20.42
2018-04-07T06:09:25.926Z,20.41
2018-04-07T06:11:52.497Z,20.40
2018-04-07T06:14:19.107Z,20.40
2018-04-07T06:16:45.292Z,20.42
2018-04-07T06:19:11.512Z,20.42
2018-04-07T06:21:38.009Z,20.44
2018-04-07T06:24:04.195Z,20.45
2018-04-07T06:26:30.354Z,20.46
2018-04-07T06:28:56.595Z,20.46
2018-04-07T06:31:22.788Z,20.49
2018-04-07T06:33:49.004Z,20.49
2018-04-07T06:36:15.288Z,20.50
2018-04-07T06:38:41.448Z,20.52
2018-04-07T06:41:07.602Z,20.52
2018-04-07T06:43:33.930Z,20.54
2018-04-07T06:46:00.107Z,20.55
2018-04-07T06:48:26.279Z,20.55
2018-04-07T06:50:52.475Z,20.56
2018-04-07T06:53:18.660Z,20.58
2018-04-07T06:55:44.873Z,20.59
2018-04-07T06:58:11.494Z,20.60
2018-04-07T07:00:37.683Z,20.60
2018-04-07T07:03:03.862Z,20.64
2018-04-07T07:05:30.115Z,20.68
2018-04-07T07:07:56.721Z,20.68
2018-04-07T07:10:22.885Z,20.68
2018-04-07T07:12:49.059Z,20.69
2018-04-07T07:15:15.308Z,20.69
2018-04-07T07:17:41.483Z,20.70
2018-04-07T07:20:07.702Z,20.72
2018-04-07T07:22:33.888Z,20.74
2018-04-07T07:25:00.181Z,20.76
2018-04-07T07:27:26.413Z,20.77
2018-04-07T07:29:52.590Z,20.79
2018-04-07T07:32:18.803Z,20.77
2018-04-07T07:34:44.985Z,20.79
2018-04-07T07:37:11.817Z,20.80
2018-04-07T07:39:38.027Z,20.79
2018-04-07T07:42:04.259Z,20.78
2018-04-07T07:44:30.842Z,20.79
2018-04-07T07:46:57.027Z,20.79
2018-04-07T07:49:23.185Z,20.79
2018-04-07T07:51:49.408Z,20.82
2018-04-07T07:54:15.629Z,20.84
2018-04-07T07:56:41.778Z,20.86
2018-04-07T07:59:08.276Z,20.84
2018-04-07T08:01:34.819Z,20.85
2018-04-07T08:04:01.017Z,20.87
2018-04-07T08:06:27.564Z,20.88
2018-04-07T08:08:53.800Z,20.89
2018-04-07T08:11:19.983Z,20.93
2018-04-07T08:13:46.158Z,20.95
2018-04-07T08:16:12.368Z,20.96
2018-04-07T08:18:38.810Z,20.97
2018-04-07T08:21:05.023Z,21.01
2018-04-07T08:23:31.198Z,21.03
2018-04-07T08:25:57.460Z,21.06
2018-04-07T08:28:23.680Z,21.08
2018-04-07T08:30:50.004Z,21.09
2018-04-07T08:33:16.498Z,21.11
2018-04-07T08:35:42.653Z,21.12
2018-04-07T08:38:08.950Z,21.13
2018-04-07T08:40:35.168Z,21.15
2018-04-07T08:43:01.734Z,21.16
2018-04-07T08:45:27.900Z,21.19
2018-04-07T08:47:54.105Z,21.20
2018-04-07T08:50:20.387Z,21.19
2018-04-07T08:52:46.610Z,21.21
2018-04-07T08:55:12.823Z,21.21
2018-04-07T08:57:39.272Z,21.21
2018-04-07T09:00:05.435Z,21.20
2018-04-07T09:02:31.870Z,21.21
2018-04-07T09:04:58.048Z,21.22
2018-04-07T09:07:24.646Z,21.23
2018-04-07T09:09:50.810Z,21.23
2018-04-07T09:12:16.998Z,21.27
2018-04-07T09:14:43.518Z,21.29
2018-04-07T09:17:09.734Z,21.31
2018-04-07T09:19:35.947Z,21.32
2018-04-07T09:22:02.179Z,21.33
2018-04-07T09:24:28.413Z,21.34
2018-04-07T09:26:54.617Z,21.36
2018-04-07T09:29:20.802Z,21.38
2018-04-07T09:31:46.971Z,21.39
2018-04-07T09:34:13.182Z,21.40
2018-04-07T09:36:39.660Z,21.42
2018-04-07T09:39:06.177Z,21.44
2018-04-07T09:41:32.426Z,21.45
2018-04-07T09:43:58.650Z,21.47
2018-04-07T09:46:24.958Z,21.49
2018-04-07T09:48:51.397Z,21.51
2018-04-07T09:51:17.560Z,21.54
2018-04-07T09:53:43.822Z,21.56
2018-04-07T09:56:10.061Z,21.59
2018-04-07T09:58:36.238Z,21.60
2018-04-07T10:01:02.415Z,21.62
2018-04-07T10:03:28.647Z,21.64
2018-04-07T10:05:54.842Z,21.67
2018-04-07T10:08:21.016Z,21.69
2018-04-07T10:10:47.218Z,21.71
2018-04-07T10:13:13.383Z,21.73
2018-04-07T10:15:39.913Z,21.76
2018-04-07T10:18:06.080Z,21.78
2018-04-07T10:20:32.237Z,21.80
2018-04-07T10:22:58.477Z,21.83
2018-04-07T10:25:24.770Z,21.85
2018-04-07T10:27:51.019Z,21.86
2018-04-07T10:30:17.243Z,21.87
2018-04-07T10:32:43.712Z,21.91
2018-04-07T10:35:09.862Z,21.93
2018-04-07T10:37:36.792Z,21.93
2018-04-07T10:40:03.033Z,21.94
2018-04-07T10:42:29.202Z,21.94
2018-04-07T10:44:55.447Z,21.95
2018-04-07T10:47:21.625Z,21.95
2018-04-07T10:49:47.821Z,21.97
2018-04-07T10:52:14.019Z,22.00
2018-04-07T10:54:40.257Z,22.03
2018-04-07T10:57:06.698Z,22.08
2018-04-07T10:59:32.901Z,22.11
2018-04-07T11:01:59.055Z,22.13
2018-04-07T11:04:25.272Z,22.17
2018-04-07T11:06:51.486Z,22.21
2018-04-07T11:09:17.648Z,22.25
2018-04-07T11:11:44.249Z,22.28
2018-04-07T11:14:10.411Z,22.32
2018-04-07T11:16:36.626Z,22.35
2018-04-07T11:19:02.875Z,22.37
2018-04-07T11:21:29.030Z,22.39
2018-04-07T11:23:55.184Z,22.42
2018-04-07T11:26:21.482Z,22.45
2018-04-07T11:28:47.643Z,22.49
2018-04-07T11:31:13.826Z,22.52
2018-04-07T11:33:40.047Z,22.54
2018-04-07T11:36:06.257Z,22.56
2018-04-07T11:38:32.463Z,22.61
2018-04-07T11:40:59.059Z,22.64
2018-04-07T11:43:25.210Z,22.68
2018-04-07T11:45:51.402Z,22.73
2018-04-07T11:48:17.596Z,22.78
2018-04-07T11:50:44.238Z,22.84
2018-04-07T11:53:10.408Z,22.88
2018-04-07T11:55:36.584Z,22.93
2018-04-07T11:58:03.024Z,22.99
2018-04-07T12:00:29.203Z,23.04
2018-04-07T12:02:55.391Z,23.10
2018-04-07T12:05:22.046Z,23.16
2018-04-07T12:07:48.262Z,23.23
2018-04-07T12:10:14.427Z,23.28
2018-04-07T12:12:47.566Z,23.33
2018-04-07T12:15:13.781Z,23.38
2018-04-07T12:17:39.945Z,23.42
2018-04-07T12:20:06.152Z,23.44
2018-04-07T12:22:32.901Z,23.49
2018-04-07T12:24:59.102Z,23.52
2018-04-07T12:27:25.289Z,23.56
2018-04-07T12:29:51.461Z,23.59
2018-04-07T12:32:18.181Z,23.63
2018-04-07T12:34:44.761Z,23.66
2018-04-07T12:37:11.290Z,23.69
2018-04-07T12:39:37.457Z,23.74
2018-04-07T12:42:03.667Z,23.78
2018-04-07T12:44:29.802Z,23.82
2018-04-07T12:46:56.009Z,23.86
2018-04-07T12:49:22.185Z,23.88
2018-04-07T12:51:48.333Z,23.90
2018-04-07T12:54:14.876Z,23.95
2018-04-07T12:56:41.036Z,23.98
2018-04-07T12:59:07.264Z,24.00
2018-04-07T13:01:33.473Z,24.01
2018-04-07T13:04:07.135Z,24.03
2018-04-07T13:06:33.416Z,24.06
2018-04-07T13:08:59.640Z,24.09
2018-04-07T13:11:25.853Z,24.12
2018-04-07T13:13:52.002Z,24.14
2018-04-07T13:16:18.223Z,24.17
2018-04-07T13:18:44.388Z,24.19
2018-04-07T13:21:10.874Z,24.22
2018-04-07T13:23:37.125Z,24.24
2018-04-07T13:26:03.327Z,24.26
2018-04-07T13:28:29.524Z,24.29
2018-04-07T13:30:55.702Z,24.33
2018-04-07T13:33:21.895Z,24.37
2018-04-07T13:35:48.434Z,24.41
2018-04-07T13:38:14.631Z,24.44
2018-04-07T13:40:40.816Z,24.47
2018-04-07T13:43:07.379Z,24.51
2018-04-07T13:45:33.859Z,24.55
2018-04-07T13:48:00.028Z,24.59
2018-04-07T13:50:26.205Z,24.62
2018-04-07T13:52:52.806Z,24.64
2018-04-07T13:55:19.066Z,24.67
2018-04-07T13:57:45.210Z,24.70
2018-04-07T14:00:11.743Z,24.71
2018-04-07T14:02:37.982Z,24.76
2018-04-07T14:05:04.139Z,24.80
2018-04-07T14:07:30.744Z,24.84
2018-04-07T14:09:56.907Z,24.88
2018-04-07T14:12:23.148Z,24.92
2018-04-07T14:14:49.289Z,24.96
2018-04-07T14:17:15.446Z,25.00
2018-04-07T14:19:41.959Z,25.06
2018-04-07T14:22:08.174Z,25.15
2018-04-07T14:24:34.335Z,25.26
2018-04-07T14:27:00.863Z,25.30
2018-04-07T14:29:27.087Z,25.36
2018-04-07T14:31:53.273Z,25.44
2018-04-07T14:34:19.427Z,25.51
2018-04-07T14:36:45.822Z,25.61
2018-04-07T14:39:12.011Z,25.82
2018-04-07T14:41:38.175Z,26.36
2018-04-07T14:44:04.635Z,27.20
2018-04-07T14:46:30.838Z,27.86
2018-04-07T14:48:57.003Z,27.99
2018-04-07T14:51:23.292Z,27.84
2018-04-07T14:53:49.448Z,27.77
2018-04-07T14:56:15.663Z,28.16
2018-04-07T14:58:42.254Z,28.60
2018-04-07T15:01:08.411Z,28.59
2018-04-07T15:03:34.627Z,28.19
2018-04-07T15:06:00.850Z,27.94
2018-04-07T15:08:27.015Z,27.80
2018-04-07T15:10:53.264Z,27.45
2018-04-07T15:13:19.456Z,27.11
2018-04-07T15:15:45.939Z,26.69
2018-04-07T15:18:12.150Z,26.45
2018-04-07T15:20:38.323Z,26.38
2018-04-07T15:23:04.474Z,26.23
2018-04-07T15:25:30.649Z,26.22
2018-04-07T15:27:57.184Z,26.74
2018-04-07T15:30:23.391Z,27.22
2018-04-07T15:32:50.136Z,27.47
2018-04-07T15:35:16.295Z,27.71
2018-04-07T15:37:42.449Z,27.88
2018-04-07T15:40:08.674Z,27.84
2018-04-07T15:42:34.845Z,27.82
2018-04-07T15:45:00.990Z,27.86
2018-04-07T15:47:27.250Z,28.01
2018-04-07T15:49:53.750Z,27.81
2018-04-07T15:52:19.910Z,27.83
2018-04-07T15:54:46.114Z,28.04
2018-04-07T15:57:12.276Z,28.21
2018-04-07T15:59:38.922Z,28.67
2018-04-07T16:02:05.202Z,29.01
2018-04-07T16:04:31.731Z,28.58
2018-04-07T16:06:58.034Z,27.90
2018-04-07T16:09:24.306Z,27.94
2018-04-07T16:11:50.528Z,28.30
2018-04-07T16:14:16.776Z,28.40
2018-04-07T16:16:43.012Z,28.43
2018-04-07T16:19:09.239Z,28.19
2018-04-07T16:21:35.455Z,27.83
2018-04-07T16:24:01.663Z,27.43
2018-04-07T16:26:27.831Z,27.01
2018-04-07T16:28:53.992Z,26.52
2018-04-07T16:31:20.562Z,26.10
2018-04-07T16:33:46.751Z,25.80
2018-04-07T16:36:13.359Z,25.64
2018-04-07T16:38:39.850Z,25.53
2018-04-07T16:41:06.015Z,25.42
2018-04-07T16:43:32.621Z,25.35
2018-04-07T16:45:58.851Z,25.24
2018-04-07T16:48:24.997Z,25.14
2018-04-07T16:50:58.174Z,25.08
2018-04-07T16:53:24.331Z,24.99
2018-04-07T16:55:50.481Z,24.89
2018-04-07T16:58:16.661Z,24.80
2018-04-07T17:00:42.856Z,24.70
2018-04-07T17:03:09.085Z,24.62
2018-04-07T17:05:35.246Z,24.55
2018-04-07T17:08:01.513Z,24.48
2018-04-07T17:10:27.657Z,24.43
2018-04-07T17:12:53.799Z,24.37
2018-04-07T17:15:20.392Z,24.33
2018-04-07T17:17:46.554Z,24.31
2018-04-07T17:20:12.733Z,24.28
2018-04-07T17:22:38.918Z,24.26
2018-04-07T17:25:05.130Z,24.23
2018-04-07T17:27:31.342Z,24.19
2018-04-07T17:29:57.585Z,24.13
2018-04-07T17:32:23.807Z,24.07
2018-04-07T17:34:49.956Z,24.01
2018-04-07T17:37:16.118Z,23.96
2018-04-07T17:39:42.365Z,23.96
2018-04-07T17:42:08.574Z,23.92
2018-04-07T17:44:34.760Z,23.87
2018-04-07T17:47:00.905Z,23.81
2018-04-07T17:49:27.081Z,23.75
2018-04-07T17:51:53.234Z,23.70
2018-04-07T17:54:20.201Z,23.67
2018-04-07T17:56:46.359Z,23.63
2018-04-07T17:59:12.845Z,23.59
2018-04-07T18:01:39.066Z,23.54
2018-04-07T18:04:05.227Z,23.48
2018-04-07T18:06:31.439Z,23.44
2018-04-07T18:08:57.585Z,23.38
2018-04-07T18:11:23.810Z,23.34
2018-04-07T18:13:50.323Z,23.29
2018-04-07T18:16:16.491Z,23.24
2018-04-07T18:18:42.740Z,23.18
2018-04-07T18:21:09.219Z,23.13
2018-04-07T18:23:35.384Z,23.07
2018-04-07T18:26:01.627Z,23.02
2018-04-07T18:28:28.106Z,22.97
2018-04-07T18:30:54.650Z,22.92
2018-04-07T18:33:20.912Z,22.88
2018-04-07T18:35:47.154Z,22.83
2018-04-07T18:38:13.311Z,22.80
2018-04-07T18:40:39.853Z,22.76
2018-04-07T18:43:06.026Z,22.73
2018-04-07T18:45:32.211Z,22.69
2018-04-07T18:47:58.400Z,22.67
2018-04-07T18:50:24.983Z,22.64
2018-04-07T18:52:51.521Z,22.61
2018-04-07T18:55:17.678Z,22.58
2018-04-07T18:57:44.218Z,22.55
2018-04-07T19:00:10.372Z,22.52
2018-04-07T19:02:36.844Z,22.49
2018-04-07T19:05:03.049Z,22.44
2018-04-07T19:07:29.246Z,22.41
2018-04-07T19:09:55.428Z,22.39
2018-04-07T19:12:22.015Z,22.37
2018-04-07T19:14:48.178Z,22.35
2018-04-07T19:17:14.610Z,22.32
2018-04-07T19:19:40.808Z,22.30
2018-04-07T19:22:07.022Z,22.29
2018-04-07T19:24:33.233Z,22.28
2018-04-07T19:26:59.398Z,22.28
2018-04-07T19:29:25.964Z,22.29
2018-04-07T19:31:52.129Z,22.29
2018-04-07T19:34:18.344Z,22.30
2018-04-07T19:36:44.508Z,22.31
2018-04-07T19:39:10.687Z,22.31
2018-04-07T19:41:36.855Z,22.33
2018-04-07T19:44:03.048Z,22.32
2018-04-07T19:46:29.194Z,22.32
2018-04-07T19:48:55.722Z,22.30
2018-04-07T19:51:21.922Z,22.30
2018-04-07T19:53:48.125Z,22.29
2018-04-07T19:56:14.370Z,22.29
2018-04-07T19:58:40.529Z,22.28
2018-04-07T20:01:06.714Z,22.27
2018-04-07T20:03:32.878Z,22.26
2018-04-07T20:05:59.080Z,22.25
2018-04-07T20:08:25.326Z,22.25
2018-04-07T20:10:51.853Z,22.24
2018-04-07T20:13:18.028Z,22.22
2018-04-07T20:15:44.495Z,22.21
2018-04-07T20:18:10.650Z,22.19
2018-04-07T20:20:36.852Z,22.18
2018-04-07T20:23:03.068Z,22.17
2018-04-07T20:25:29.666Z,22.15
2018-04-07T20:27:55.823Z,22.14
2018-04-07T20:30:22.281Z,22.12
2018-04-07T20:32:48.565Z,22.11
2018-04-07T20:35:14.749Z,22.09
2018-04-07T20:37:40.980Z,22.08
2018-04-07T20:40:07.134Z,22.08
2018-04-07T20:42:33.293Z,22.07
2018-04-07T20:44:59.480Z,22.06
2018-04-07T20:47:25.977Z,22.03
2018-04-07T20:49:52.154Z,22.02
2018-04-07T20:52:18.349Z,22.01
2018-04-07T20:54:44.582Z,22.00
2018-04-07T20:57:10.730Z,21.99
2018-04-07T20:59:36.909Z,21.97
2018-04-07T21:02:03.497Z,21.97
2018-04-07T21:04:29.663Z,21.96
2018-04-07T21:06:55.854Z,21.95
2018-04-07T21:09:22.044Z,21.97
2018-04-07T21:11:48.207Z,21.99
2018-04-07T21:14:14.440Z,21.98
2018-04-07T21:16:40.649Z,21.98
2018-04-07T21:19:06.839Z,21.97
2018-04-07T21:21:33.384Z,21.95
2018-04-07T21:23:59.610Z,21.93
2018-04-07T21:26:25.770Z,21.93
2018-04-07T21:28:52.262Z,21.91
2018-04-07T21:31:18.709Z,21.90
2018-04-07T21:33:44.906Z,21.90
2018-04-07T21:36:11.132Z,21.89
2018-04-07T21:38:37.277Z,21.90
2018-04-07T21:41:03.457Z,21.88
2018-04-07T21:43:29.666Z,21.87
2018-04-07T21:45:55.820Z,21.85
2018-04-07T21:48:22.335Z,21.85
2018-04-07T21:50:48.502Z,21.84
2018-04-07T21:53:14.698Z,21.81
2018-04-07T21:55:41.295Z,21.80
2018-04-07T21:58:07.498Z,21.78
2018-04-07T22:00:34.349Z,21.78
2018-04-07T22:03:00.516Z,21.78
2018-04-07T22:05:27.026Z,21.74
2018-04-07T22:07:53.207Z,21.71
2018-04-07T22:10:19.494Z,21.69
2018-04-07T22:12:46.210Z,21.66
2018-04-07T22:15:12.470Z,21.65
2018-04-07T22:17:38.674Z,21.64
2018-04-07T22:20:04.899Z,21.64
2018-04-07T22:22:31.188Z,21.63
2018-04-07T22:24:57.660Z,21.62
2018-04-07T22:27:23.823Z,21.61
2018-04-07T22:29:50.071Z,21.61
2018-04-07T22:32:16.292Z,21.60
2018-04-07T22:34:42.526Z,21.58
2018-04-07T22:37:08.742Z,21.57
2018-04-07T22:39:34.936Z,21.57
2018-04-07T22:42:01.138Z,21.55
2018-04-07T22:44:27.690Z,21.55
2018-04-07T22:46:53.921Z,21.53
2018-04-07T22:49:20.129Z,21.53
2018-04-07T22:51:46.335Z,21.52
2018-04-07T22:54:12.499Z,21.51
2018-04-07T22:56:38.744Z,21.51
2018-04-07T22:59:04.952Z,21.52
2018-04-07T23:01:31.124Z,21.51
2018-04-07T23:03:57.305Z,21.50
2018-04-07T23:06:23.560Z,21.50
2018-04-07T23:08:49.739Z,21.49
2018-04-07T23:11:16.201Z,21.50
2018-04-07T23:13:42.681Z,21.51
2018-04-07T23:16:09.185Z,21.52
2018-04-07T23:18:35.337Z,21.51
2018-04-07T23:21:01.550Z,21.50
2018-04-07T23:23:27.738Z,21.48
2018-04-07T23:25:53.901Z,21.46
2018-04-07T23:28:20.549Z,21.44
2018-04-07T23:30:46.724Z,21.43
2018-04-07T23:33:13.171Z,21.43
2018-04-07T23:35:39.402Z,21.45
2018-04-07T23:38:05.684Z,21.42
2018-04-07T23:40:31.845Z,21.40
2018-04-07T23:42:58.031Z,21.39
2018-04-07T23:45:24.254Z,21.38
2018-04-07T23:47:50.755Z,21.37
2018-04-07T23:50:17.297Z,21.36
2018-04-07T23:52:43.466Z,21.36
2018-04-07T23:55:09.668Z,21.36
2018-04-07T23:57:35.924Z,21.35
